createdAt,value
2017-08-27T00:01:29.395Z,24.30
2017-08-27T00:03:56.957Z,24.10
2017-08-27T00:06:25.315Z,23.53
2017-08-27T00:08:52.905Z,24.77
2017-08-27T00:11:20.507Z,25.00
2017-08-27T00:13:48.096Z,23.60
2017-08-27T00:16:15.678Z,23.00
2017-08-27T00:18:43.244Z,22.80
2017-08-27T00:21:10.814Z,24.17
2017-08-27T00:23:39.166Z,24.17
2017-08-27T00:26:06.725Z,23.23
2017-08-27T00:28:34.300Z,24.40
2017-08-27T00:31:01.921Z,25.67
2017-08-27T00:33:29.469Z,24.43
2017-08-27T00:35:57.056Z,25.40
2017-08-27T00:38:24.634Z,24.63
2017-08-27T00:40:52.241Z,25.10
2017-08-27T00:43:20.235Z,24.93
2017-08-27T00:45:47.856Z,25.03
2017-08-27T00:48:15.439Z,25.13
2017-08-27T00:50:43.021Z,25.37
2017-08-27T00:53:10.595Z,26.37
2017-08-27T00:55:38.198Z,23.47
2017-08-27T00:58:06.557Z,24.20
2017-08-27T01:00:34.157Z,24.17
2017-08-27T01:03:02.169Z,24.13
2017-08-27T01:05:29.733Z,23.70
2017-08-27T01:07:57.939Z,25.30
2017-08-27T01:10:25.593Z,24.23
2017-08-27T01:12:53.386Z,24.80
2017-08-27T01:15:20.968Z,24.50
2017-08-27T01:17:48.570Z,24.30
2017-08-27T01:20:16.171Z,24.33
2017-08-27T01:22:43.738Z,23.80
2017-08-27T01:25:11.313Z,24.27
2017-08-27T01:27:38.903Z,24.90
2017-08-27T01:30:06.812Z,24.10
2017-08-27T01:32:34.413Z,23.50
2017-08-27T01:35:02.009Z,24.67
2017-08-27T01:37:29.585Z,25.60
2017-08-27T01:39:57.960Z,26.43
2017-08-27T01:42:25.519Z,23.87
2017-08-27T01:44:53.124Z,24.27
2017-08-27T01:47:20.690Z,23.03
2017-08-27T01:49:48.290Z,24.40
2017-08-27T01:52:15.850Z,25.13
2017-08-27T01:54:43.414Z,26.50
2017-08-27T01:57:11.010Z,25.50
2017-08-27T01:59:38.574Z,26.50
2017-08-27T02:02:06.139Z,26.47
2017-08-27T02:04:33.701Z,26.67
2017-08-27T02:07:01.271Z,26.30
2017-08-27T02:09:28.867Z,27.17
2017-08-27T02:11:56.458Z,29.57
2017-08-27T02:14:24.027Z,28.03
2017-08-27T02:16:51.594Z,28.30
2017-08-27T02:19:19.940Z,28.60
2017-08-27T02:21:47.507Z,29.97
2017-08-27T02:24:15.065Z,29.60
2017-08-27T02:26:42.661Z,33.53
2017-08-27T02:29:10.229Z,31.83
2017-08-27T02:31:37.830Z,32.80
2017-08-27T02:34:05.409Z,32.43
2017-08-27T02:36:32.983Z,32.53
2017-08-27T02:39:00.572Z,34.03
2017-08-27T02:41:28.257Z,33.27
2017-08-27T02:43:55.834Z,34.20
2017-08-27T02:46:23.399Z,33.67
2017-08-27T02:48:51.005Z,36.73
2017-08-27T02:51:18.560Z,36.07
2017-08-27T02:53:46.927Z,35.87
2017-08-27T02:56:14.474Z,35.40
2017-08-27T02:58:42.061Z,36.43
2017-08-27T03:01:10.406Z,35.43
2017-08-27T03:03:37.985Z,36.73
2017-08-27T03:06:05.546Z,38.20
2017-08-27T03:08:33.928Z,38.43
2017-08-27T03:11:01.504Z,39.60
2017-08-27T03:13:29.099Z,41.10
2017-08-27T03:15:56.706Z,40.70
2017-08-27T03:18:25.265Z,39.73
2017-08-27T03:20:52.887Z,40.30
2017-08-27T03:23:20.490Z,37.83
2017-08-27T03:25:48.066Z,37.43
2017-08-27T03:28:15.718Z,38.30
2017-08-27T03:30:43.279Z,37.17
2017-08-27T03:33:10.860Z,37.10
2017-08-27T03:35:38.621Z,34.57
2017-08-27T03:38:06.173Z,35.97
2017-08-27T03:40:33.733Z,36.77
2017-08-27T03:43:01.323Z,37.63
2017-08-27T03:45:29.654Z,35.33
2017-08-27T03:47:57.269Z,35.43
2017-08-27T03:50:24.867Z,37.60
2017-08-27T03:52:52.437Z,38.80
2017-08-27T03:55:20.049Z,38.50
2017-08-27T03:57:47.613Z,40.73
2017-08-27T04:00:15.182Z,41.30
2017-08-27T04:02:42.777Z,39.47
2017-08-27T04:05:10.363Z,42.43
2017-08-27T04:07:37.979Z,41.97
2017-08-27T04:10:05.567Z,41.80
2017-08-27T04:12:33.145Z,43.00
2017-08-27T04:15:00.706Z,42.83
2017-08-27T04:17:28.353Z,43.77
2017-08-27T04:19:55.943Z,43.43
2017-08-27T04:22:23.498Z,44.50
2017-08-27T04:24:51.066Z,42.87
2017-08-27T04:27:18.697Z,44.33
2017-08-27T04:29:46.279Z,43.07
2017-08-27T04:32:13.855Z,45.77
2017-08-27T04:34:41.413Z,44.70
2017-08-27T04:37:09.795Z,46.13
2017-08-27T04:39:37.392Z,45.30
2017-08-27T04:42:05.003Z,45.70
2017-08-27T04:44:32.567Z,45.00
2017-08-27T04:47:00.146Z,43.50
2017-08-27T04:49:27.719Z,45.47
2017-08-27T04:51:55.279Z,41.63
2017-08-27T04:54:22.960Z,44.43
2017-08-27T04:56:50.518Z,42.20
2017-08-27T04:59:18.094Z,42.20
2017-08-27T05:01:45.649Z,41.90
2017-08-27T05:04:13.227Z,42.70
2017-08-27T05:06:40.793Z,44.60
2017-08-27T05:09:08.369Z,41.13
2017-08-27T05:11:35.954Z,40.70
2017-08-27T05:14:03.522Z,41.60
2017-08-27T05:16:31.106Z,41.07
2017-08-27T05:18:58.681Z,42.10
2017-08-27T05:21:26.245Z,41.33
2017-08-27T05:23:53.834Z,41.60
2017-08-27T05:26:21.402Z,40.30
2017-08-27T05:28:48.961Z,42.33
2017-08-27T05:31:16.530Z,42.43
2017-08-27T05:33:44.094Z,40.27
2017-08-27T05:36:11.681Z,41.03
2017-08-27T05:38:39.240Z,38.70
2017-08-27T05:41:06.833Z,41.13
2017-08-27T05:43:34.465Z,39.53
2017-08-27T05:46:02.069Z,38.30
2017-08-27T05:48:29.620Z,37.23
2017-08-27T05:50:57.193Z,40.27
2017-08-27T05:53:24.765Z,38.60
2017-08-27T05:55:52.346Z,36.83
2017-08-27T05:58:19.939Z,35.53
2017-08-27T06:00:47.507Z,34.40
2017-08-27T06:03:15.093Z,35.90
2017-08-27T06:05:42.783Z,35.93
2017-08-27T06:08:10.352Z,36.77
2017-08-27T06:10:37.947Z,33.90
2017-08-27T06:13:05.505Z,35.40
2017-08-27T06:15:33.125Z,35.57
2017-08-27T06:18:00.689Z,34.90
2017-08-27T06:20:28.341Z,34.67
2017-08-27T06:22:55.919Z,34.73
2017-08-27T06:25:23.485Z,33.63
2017-08-27T06:27:51.076Z,32.43
2017-08-27T06:30:18.647Z,29.20
2017-08-27T06:32:46.361Z,30.87
2017-08-27T06:35:13.936Z,32.33
2017-08-27T06:37:41.533Z,30.20
2017-08-27T06:40:09.091Z,30.47
2017-08-27T06:42:36.729Z,31.63
2017-08-27T06:45:04.326Z,30.57
2017-08-27T06:47:31.889Z,30.47
2017-08-27T06:49:59.486Z,30.50
2017-08-27T06:52:27.053Z,30.07
2017-08-27T06:54:54.621Z,31.90
2017-08-27T06:57:22.325Z,31.70
2017-08-27T06:59:49.922Z,30.87
2017-08-27T07:02:17.476Z,31.33
2017-08-27T07:04:45.054Z,30.10
2017-08-27T07:07:13.362Z,29.33
2017-08-27T07:09:41.721Z,28.90
2017-08-27T07:12:09.320Z,24.50
2017-08-27T07:14:36.989Z,25.93
2017-08-27T07:17:04.551Z,26.80
2017-08-27T07:19:32.137Z,27.70
2017-08-27T07:21:59.734Z,27.93
2017-08-27T07:24:27.310Z,29.33
2017-08-27T07:26:54.870Z,28.20
2017-08-27T07:29:22.630Z,28.07
2017-08-27T07:31:50.241Z,27.50
2017-08-27T07:34:17.845Z,27.27
2017-08-27T07:36:45.414Z,23.23
2017-08-27T07:39:13.009Z,19.87
2017-08-27T07:41:40.662Z,19.13
2017-08-27T07:44:08.240Z,17.43
2017-08-27T07:46:35.821Z,17.27
2017-08-27T07:49:03.436Z,18.10
2017-08-27T07:51:31.055Z,20.40
2017-08-27T07:53:58.626Z,17.00
2017-08-27T07:56:26.189Z,16.70
2017-08-27T07:58:53.767Z,16.93
2017-08-27T08:01:21.306Z,17.97
2017-08-27T08:03:48.864Z,16.80
2017-08-27T08:06:16.513Z,16.10
2017-08-27T08:08:44.091Z,14.97
2017-08-27T08:11:11.666Z,13.97
2017-08-27T08:13:39.247Z,12.03
2017-08-27T08:16:07.604Z,14.53
2017-08-27T08:18:35.971Z,13.53
2017-08-27T08:21:03.593Z,12.90
2017-08-27T08:23:31.232Z,10.90
2017-08-27T08:25:58.812Z,10.90
2017-08-27T08:28:26.423Z,10.17
2017-08-27T08:30:54.278Z,9.93
2017-08-27T08:33:21.859Z,14.67
2017-08-27T08:35:49.423Z,14.80
2017-08-27T08:38:17.787Z,14.00
2017-08-27T08:40:45.369Z,13.73
2017-08-27T08:43:13.001Z,13.37
2017-08-27T08:45:40.586Z,12.87
2017-08-27T08:48:08.937Z,13.40
2017-08-27T08:50:36.524Z,12.40
2017-08-27T08:53:04.119Z,12.60
2017-08-27T08:55:31.686Z,12.23
2017-08-27T08:57:59.276Z,11.70
2017-08-27T09:00:26.885Z,12.93
2017-08-27T09:02:55.243Z,9.37
2017-08-27T09:05:22.813Z,10.23
2017-08-27T09:07:51.184Z,6.83
2017-08-27T09:10:18.953Z,10.50
2017-08-27T09:12:46.557Z,9.50
2017-08-27T09:15:14.151Z,5.73
2017-08-27T09:17:41.715Z,5.93
2017-08-27T09:20:09.286Z,5.70
2017-08-27T09:22:36.887Z,5.03
2017-08-27T09:25:04.471Z,3.80
2017-08-27T09:27:32.025Z,6.37
2017-08-27T09:29:59.629Z,6.47
2017-08-27T09:32:27.194Z,7.70
2017-08-27T09:34:54.878Z,6.17
2017-08-27T09:37:22.587Z,7.70
2017-08-27T09:39:50.154Z,6.57
2017-08-27T09:42:17.734Z,7.80
2017-08-27T09:44:45.319Z,7.50
2017-08-27T09:47:13.017Z,7.60
2017-08-27T09:49:40.543Z,5.60
2017-08-27T09:52:08.154Z,4.00
2017-08-27T09:54:35.751Z,3.50
2017-08-27T09:57:03.315Z,3.30
2017-08-27T09:59:30.886Z,4.00
2017-08-27T10:01:59.413Z,4.60
2017-08-27T10:04:27.121Z,4.40
2017-08-27T10:06:55.537Z,5.03
2017-08-27T10:09:23.120Z,5.00
2017-08-27T10:11:50.734Z,5.40
2017-08-27T10:14:18.313Z,4.60
2017-08-27T10:16:46.682Z,5.50
2017-08-27T10:19:15.028Z,4.23
2017-08-27T10:21:42.638Z,5.20
2017-08-27T10:24:10.246Z,5.03
2017-08-27T10:26:37.813Z,5.50
2017-08-27T10:29:05.405Z,6.07
2017-08-27T10:31:32.986Z,5.23
2017-08-27T10:34:00.617Z,4.00
2017-08-27T10:36:28.233Z,4.73
2017-08-27T10:38:56.781Z,4.80
2017-08-27T10:41:24.358Z,5.13
2017-08-27T10:43:51.958Z,4.97
2017-08-27T10:46:20.538Z,4.67
2017-08-27T10:48:48.647Z,4.20
2017-08-27T10:51:16.263Z,3.40
2017-08-27T10:53:43.862Z,3.00
2017-08-27T10:56:11.438Z,2.53
2017-08-27T10:58:39.780Z,2.47
2017-08-27T11:01:07.427Z,2.73
2017-08-27T11:03:35.029Z,2.27
2017-08-27T11:06:02.587Z,2.43
2017-08-27T11:08:30.150Z,3.10
2017-08-27T11:10:57.732Z,3.17
2017-08-27T11:13:25.280Z,3.00
2017-08-27T11:15:52.841Z,3.17
2017-08-27T11:18:20.423Z,3.00
2017-08-27T11:20:48.100Z,2.63
2017-08-27T11:23:15.704Z,2.67
2017-08-27T11:25:43.292Z,3.40
2017-08-27T11:28:10.865Z,3.30
2017-08-27T11:30:39.186Z,3.30
2017-08-27T11:33:06.782Z,2.73
2017-08-27T11:35:34.395Z,2.70
2017-08-27T11:38:01.986Z,2.70
2017-08-27T11:40:29.557Z,2.93
2017-08-27T11:42:57.152Z,2.90
2017-08-27T11:45:25.477Z,3.17
2017-08-27T11:47:53.045Z,2.97
2017-08-27T11:50:20.631Z,3.27
2017-08-27T11:52:48.210Z,3.40
2017-08-27T11:55:15.774Z,3.23
2017-08-27T11:57:43.370Z,4.00
2017-08-27T12:00:11.070Z,4.13
2017-08-27T12:02:38.648Z,3.00
2017-08-27T12:05:06.254Z,4.00
2017-08-27T12:07:34.090Z,3.73
2017-08-27T12:10:01.686Z,3.77
2017-08-27T12:12:29.288Z,3.80
2017-08-27T12:14:56.902Z,4.27
2017-08-27T12:17:24.497Z,3.90
2017-08-27T12:19:52.578Z,3.57
2017-08-27T12:22:20.217Z,4.40
2017-08-27T12:24:47.789Z,3.30
2017-08-27T12:27:15.453Z,3.33
2017-08-27T12:29:43.026Z,3.30
2017-08-27T12:32:10.743Z,3.13
2017-08-27T12:34:38.321Z,3.30
2017-08-27T12:37:05.869Z,3.80
2017-08-27T12:39:33.471Z,3.50
2017-08-27T12:42:01.054Z,4.13
2017-08-27T12:44:28.633Z,4.10
2017-08-27T12:46:56.426Z,3.33
2017-08-27T12:49:24.077Z,3.50
2017-08-27T12:51:51.723Z,3.50
2017-08-27T12:54:19.313Z,3.20
2017-08-27T12:56:47.002Z,3.77
2017-08-27T12:59:14.566Z,3.50
2017-08-27T13:01:42.129Z,3.10
2017-08-27T13:04:09.686Z,3.50
2017-08-27T13:06:37.272Z,3.20
2017-08-27T13:09:05.584Z,3.50
2017-08-27T13:11:33.158Z,3.30
2017-08-27T13:14:00.808Z,3.40
2017-08-27T13:16:28.369Z,3.20
2017-08-27T13:18:55.987Z,3.00
2017-08-27T13:21:23.562Z,3.37
2017-08-27T13:23:51.136Z,3.20
2017-08-27T13:26:18.697Z,3.50
2017-08-27T13:28:46.264Z,4.10
2017-08-27T13:31:13.853Z,3.30
2017-08-27T13:33:41.435Z,3.67
2017-08-27T13:36:09.017Z,3.27
2017-08-27T13:38:36.635Z,3.30
2017-08-27T13:41:04.236Z,3.30
2017-08-27T13:43:31.822Z,3.53
2017-08-27T13:45:59.378Z,3.90
2017-08-27T13:48:26.974Z,3.70
2017-08-27T13:50:54.569Z,3.20
2017-08-27T13:53:22.172Z,3.40
2017-08-27T13:55:49.714Z,3.87
2017-08-27T13:58:17.478Z,3.70
2017-08-27T14:00:45.849Z,4.10
2017-08-27T14:03:13.444Z,3.40
2017-08-27T14:05:41.017Z,3.80
2017-08-27T14:08:08.719Z,4.43
2017-08-27T14:10:36.317Z,3.77
2017-08-27T14:13:03.914Z,3.80
2017-08-27T14:15:31.489Z,3.53
2017-08-27T14:17:59.290Z,3.33
2017-08-27T14:20:27.627Z,3.43
2017-08-27T14:22:55.183Z,3.40
2017-08-27T14:25:22.753Z,3.87
2017-08-27T14:27:50.379Z,3.87
2017-08-27T14:30:17.942Z,3.60
2017-08-27T14:32:45.517Z,3.90
2017-08-27T14:35:13.106Z,3.30
2017-08-27T14:37:40.681Z,3.20
2017-08-27T14:40:08.253Z,3.33
2017-08-27T14:42:35.819Z,3.50
2017-08-27T14:45:03.411Z,3.20
2017-08-27T14:47:30.969Z,3.50
2017-08-27T14:49:58.574Z,3.90
2017-08-27T14:52:26.290Z,3.97
2017-08-27T14:54:53.865Z,3.57
2017-08-27T14:57:21.437Z,3.40
2017-08-27T14:59:49.051Z,3.70
2017-08-27T15:02:16.646Z,4.10
2017-08-27T15:04:44.257Z,3.33
2017-08-27T15:07:11.854Z,3.60
2017-08-27T15:09:39.419Z,3.50
2017-08-27T15:12:06.994Z,4.03
2017-08-27T15:14:34.652Z,3.40
2017-08-27T15:17:02.241Z,3.23
2017-08-27T15:19:29.823Z,3.50
2017-08-27T15:21:57.679Z,3.20
2017-08-27T15:24:25.235Z,3.60
2017-08-27T15:26:52.837Z,7.57
2017-08-27T15:29:21.184Z,4.10
2017-08-27T15:31:48.782Z,3.83
2017-08-27T15:34:17.123Z,4.33
2017-08-27T15:36:44.745Z,3.27
2017-08-27T15:39:12.314Z,3.60
2017-08-27T15:41:39.874Z,3.20
2017-08-27T15:44:07.466Z,3.67
2017-08-27T15:46:35.029Z,3.80
2017-08-27T15:49:02.638Z,3.30
2017-08-27T15:51:30.957Z,3.10
2017-08-27T15:53:58.551Z,3.60
2017-08-27T15:56:26.274Z,3.27
2017-08-27T15:58:53.823Z,3.50
2017-08-27T16:01:21.412Z,3.30
2017-08-27T16:03:49.223Z,4.10
2017-08-27T16:06:16.806Z,5.33
2017-08-27T16:08:44.470Z,8.33
2017-08-27T16:11:12.018Z,4.30
2017-08-27T16:13:39.595Z,3.70
2017-08-27T16:16:07.420Z,3.70
2017-08-27T16:18:34.970Z,5.70
2017-08-27T16:21:02.627Z,4.97
2017-08-27T16:23:30.209Z,8.23
2017-08-27T16:25:58.562Z,3.40
2017-08-27T16:28:26.127Z,3.50
2017-08-27T16:30:53.915Z,3.33
2017-08-27T16:33:21.462Z,3.87
2017-08-27T16:35:49.033Z,3.33
2017-08-27T16:38:16.614Z,3.30
2017-08-27T16:40:44.157Z,3.20
2017-08-27T16:43:11.750Z,3.20
2017-08-27T16:45:39.303Z,3.07
2017-08-27T16:48:06.862Z,3.13
2017-08-27T16:50:34.709Z,2.90
2017-08-27T16:53:02.290Z,3.00
2017-08-27T16:55:29.868Z,3.23
2017-08-27T16:57:58.033Z,2.87
2017-08-27T17:00:25.660Z,3.23
2017-08-27T17:02:53.274Z,3.10
2017-08-27T17:05:20.883Z,2.70
2017-08-27T17:07:48.799Z,3.47
2017-08-27T17:10:16.354Z,3.20
2017-08-27T17:12:43.966Z,3.10
2017-08-27T17:15:11.610Z,3.60
2017-08-27T17:17:39.195Z,2.97
2017-08-27T17:20:06.873Z,3.07
2017-08-27T17:22:34.442Z,2.80
2017-08-27T17:25:02.026Z,3.20
2017-08-27T17:27:29.622Z,3.33
2017-08-27T17:29:57.198Z,3.03
2017-08-27T17:32:24.775Z,2.70
2017-08-27T17:34:53.149Z,2.63
2017-08-27T17:37:20.802Z,2.83
2017-08-27T17:39:48.395Z,3.00
2017-08-27T17:42:15.922Z,3.10
2017-08-27T17:44:43.524Z,2.90
2017-08-27T17:47:11.103Z,3.00
2017-08-27T17:49:38.696Z,3.00
2017-08-27T17:52:06.328Z,3.20
2017-08-27T17:54:33.917Z,3.50
2017-08-27T17:57:01.516Z,3.40
2017-08-27T17:59:29.083Z,3.20
2017-08-27T18:01:56.646Z,3.03
2017-08-27T18:04:24.230Z,3.10
2017-08-27T18:06:51.792Z,3.00
2017-08-27T18:09:20.139Z,2.83
2017-08-27T18:11:47.719Z,3.10
2017-08-27T18:14:15.292Z,2.80
2017-08-27T18:16:42.867Z,3.10
2017-08-27T18:19:10.450Z,2.80
2017-08-27T18:21:38.049Z,2.60
2017-08-27T18:24:05.630Z,2.83
2017-08-27T18:26:33.222Z,3.17
2017-08-27T18:29:00.820Z,3.20
2017-08-27T18:31:29.177Z,3.43
2017-08-27T18:33:56.790Z,3.10
2017-08-27T18:36:24.366Z,3.20
2017-08-27T18:38:51.977Z,3.10
2017-08-27T18:41:19.562Z,3.00
2017-08-27T18:43:47.163Z,3.07
2017-08-27T18:46:14.737Z,3.43
2017-08-27T18:48:42.365Z,3.90
2017-08-27T18:51:09.933Z,3.30
2017-08-27T18:53:37.519Z,3.87
2017-08-27T18:56:05.117Z,3.70
2017-08-27T18:58:32.705Z,3.67
2017-08-27T19:01:00.298Z,4.10
2017-08-27T19:03:27.911Z,3.43
2017-08-27T19:05:55.457Z,4.40
2017-08-27T19:08:23.050Z,3.67
2017-08-27T19:10:50.635Z,4.03
2017-08-27T19:13:18.191Z,4.50
2017-08-27T19:15:45.858Z,4.20
2017-08-27T19:18:13.447Z,4.40
2017-08-27T19:20:41.007Z,4.63
2017-08-27T19:23:09.605Z,4.10
2017-08-27T19:25:37.588Z,5.27
2017-08-27T19:28:05.625Z,4.47
2017-08-27T19:30:33.609Z,4.60
2017-08-27T19:33:01.191Z,4.30
2017-08-27T19:35:28.811Z,4.97
2017-08-27T19:37:56.420Z,5.00
2017-08-27T19:40:24.019Z,4.33
2017-08-27T19:42:51.610Z,3.90
2017-08-27T19:45:19.220Z,4.73
2017-08-27T19:47:46.814Z,4.67
2017-08-27T19:50:14.378Z,4.47
2017-08-27T19:52:41.965Z,4.30
2017-08-27T19:55:09.535Z,4.00
2017-08-27T19:57:37.383Z,4.13
2017-08-27T20:00:04.975Z,3.90
2017-08-27T20:02:32.563Z,4.70
2017-08-27T20:05:00.217Z,5.03
2017-08-27T20:07:27.810Z,4.43
2017-08-27T20:09:55.403Z,4.60
2017-08-27T20:12:23.059Z,4.93
2017-08-27T20:14:50.645Z,4.33
2017-08-27T20:17:18.228Z,5.00
2017-08-27T20:19:45.806Z,5.17
2017-08-27T20:22:13.405Z,6.10
2017-08-27T20:24:40.964Z,4.40
2017-08-27T20:27:08.643Z,4.63
2017-08-27T20:29:36.990Z,4.50
2017-08-27T20:32:04.613Z,4.90
2017-08-27T20:34:32.246Z,4.70
2017-08-27T20:37:00.593Z,5.23
2017-08-27T20:39:28.194Z,5.03
2017-08-27T20:41:56.572Z,5.90
2017-08-27T20:44:24.173Z,5.30
2017-08-27T20:46:51.825Z,5.97
2017-08-27T20:49:19.370Z,5.60
2017-08-27T20:51:47.004Z,5.53
2017-08-27T20:54:14.561Z,5.10
2017-08-27T20:56:42.160Z,6.00
2017-08-27T20:59:09.732Z,5.43
2017-08-27T21:01:37.310Z,5.40
2017-08-27T21:04:04.862Z,5.27
2017-08-27T21:06:32.484Z,5.03
2017-08-27T21:09:00.082Z,5.00
2017-08-27T21:11:27.642Z,5.23
2017-08-27T21:13:55.235Z,5.27
2017-08-27T21:16:22.818Z,5.23
2017-08-27T21:18:50.381Z,5.10
2017-08-27T21:21:17.967Z,5.00
2017-08-27T21:23:45.555Z,5.00
2017-08-27T21:26:13.153Z,5.00
2017-08-27T21:28:40.762Z,4.43
2017-08-27T21:31:08.382Z,4.80
2017-08-27T21:33:35.979Z,4.07
2017-08-27T21:36:03.566Z,5.30
2017-08-27T21:38:31.143Z,4.43
2017-08-27T21:40:58.709Z,4.37
2017-08-27T21:43:26.305Z,4.63
2017-08-27T21:45:53.899Z,4.50
2017-08-27T21:48:21.464Z,4.10
2017-08-27T21:50:49.206Z,4.87
2017-08-27T21:53:16.879Z,4.90
2017-08-27T21:55:44.490Z,4.70
2017-08-27T21:58:12.085Z,4.17
2017-08-27T22:00:39.680Z,4.20
2017-08-27T22:03:07.271Z,4.30
2017-08-27T22:05:34.982Z,4.80
2017-08-27T22:08:02.578Z,4.90
2017-08-27T22:10:30.158Z,4.80
2017-08-27T22:12:57.726Z,4.33
2017-08-27T22:15:25.294Z,4.77
2017-08-27T22:17:52.879Z,4.97
2017-08-27T22:20:20.465Z,4.93
2017-08-27T22:22:48.129Z,5.07
2017-08-27T22:25:15.771Z,4.60
2017-08-27T22:27:43.326Z,5.30
2017-08-27T22:30:10.901Z,5.20
2017-08-27T22:32:38.582Z,5.10
2017-08-27T22:35:06.155Z,5.23
2017-08-27T22:37:33.783Z,5.60
2017-08-27T22:40:01.366Z,5.90
2017-08-27T22:42:28.977Z,5.33
2017-08-27T22:44:56.563Z,5.80
2017-08-27T22:47:24.130Z,5.70
2017-08-27T22:49:51.729Z,6.17
2017-08-27T22:52:19.291Z,6.50
2017-08-27T22:54:46.955Z,5.97
2017-08-27T22:57:14.547Z,5.90
2017-08-27T22:59:42.110Z,5.87
2017-08-27T23:02:09.668Z,6.50
2017-08-27T23:04:38.003Z,5.87
2017-08-27T23:07:05.566Z,5.80
2017-08-27T23:09:33.417Z,5.77
2017-08-27T23:12:01.018Z,6.43
2017-08-27T23:14:28.622Z,5.90
2017-08-27T23:16:56.170Z,5.90
2017-08-27T23:19:23.743Z,5.53
2017-08-27T23:21:51.349Z,5.33
2017-08-27T23:24:18.946Z,5.43
2017-08-27T23:26:47.289Z,5.77
2017-08-27T23:29:14.958Z,6.70
2017-08-27T23:31:42.537Z,5.70
2017-08-27T23:34:10.872Z,5.60
2017-08-27T23:36:38.601Z,5.63
2017-08-27T23:39:06.212Z,5.90
2017-08-27T23:41:33.766Z,6.63
2017-08-27T23:44:01.437Z,6.20
2017-08-27T23:46:28.997Z,6.20
2017-08-27T23:48:56.603Z,6.07
2017-08-27T23:51:24.187Z,6.40
2017-08-27T23:53:51.786Z,6.70
2017-08-27T23:56:19.365Z,6.27
2017-08-27T23:58:46.959Z,6.20
